Lanaken, Belgium
Current Conditions -  °F | °C
As of 11:55 AM on Sunday 23 Nov 2014 (Local Time) from EHBK Reporting Station
Clear Clear  
Wind Chill: 15°   Ceiling: Unl
Heat Index: 15°   Visibility: 6mi
Dew Point: 11°   Wind: 7mph
Humidity: 77%   Direction: 200°SSW
Pressure: 30.03"   Gusts: NA
Location:  50.89°N, 5.65°E
Report Text: EHBK 231055Z AUTO 20006KT 170V240 9999 NSC 15/11 Q1017 NOSIG
Loading
Personal Weather Stations






























Interactive Weather Map New forecast layout! Learn more

10-Day Weather Forecast

Advertisements
Track Severe Weather on mobile